sensor_id;sensor_type;location;lat;lon;timestamp;pressure;altitude;pressure_sealevel;temperature;humidity
41688;BME280;27371;42.686;23.362;2023-03-18T00:01:20;162469.09;;;1.03;83.09
41688;BME280;27371;42.686;23.362;2023-03-18T00:03:46;162463.78;;;1.01;82.41
41688;BME280;27371;42.686;23.362;2023-03-18T00:06:15;162449.16;;;0.96;82.30
41688;BME280;27371;42.686;23.362;2023-03-18T00:08:42;162426.59;;;0.87;82.44
41688;BME280;27371;42.686;23.362;2023-03-18T00:11:09;162408.00;;;0.80;82.18
41688;BME280;27371;42.686;23.362;2023-03-18T00:13:36;162376.16;;;0.68;81.88
41688;BME280;27371;42.686;23.362;2023-03-18T00:16:03;162273.94;;;0.28;80.24
41688;BME280;27371;42.686;23.362;2023-03-18T00:18:30;162194.31;;;-0.03;80.78
41688;BME280;27371;42.686;23.362;2023-03-18T00:20:57;162147.84;;;-0.20;82.02
41688;BME280;27371;42.686;23.362;2023-03-18T00:23:24;162151.84;;;-0.19;83.44
41688;BME280;27371;42.686;23.362;2023-03-18T00:25:52;162161.13;;;-0.15;84.59
41688;BME280;27371;42.686;23.362;2023-03-18T00:28:18;162158.50;;;-0.16;85.60
41688;BME280;27371;42.686;23.362;2023-03-18T00:30:44;162191.63;;;-0.04;86.24
41688;BME280;27371;42.686;23.362;2023-03-18T00:33:10;162195.63;;;-0.02;86.17
41688;BME280;27371;42.686;23.362;2023-03-18T00:35:36;162195.63;;;-0.02;86.45
41688;BME280;27371;42.686;23.362;2023-03-18T00:38:03;162191.63;;;-0.04;86.50
41688;BME280;27371;42.686;23.362;2023-03-18T00:40:32;162199.59;;;-0.01;86.55
41688;BME280;27371;42.686;23.362;2023-03-18T00:43:16;162187.69;;;-0.05;87.01
41688;BME280;27371;42.686;23.362;2023-03-18T00:45:43;162185.00;;;-0.06;86.93
41688;BME280;27371;42.686;23.362;2023-03-18T00:48:09;162206.22;;;0.02;87.02
41688;BME280;27371;42.686;23.362;2023-03-18T00:50:35;162222.13;;;0.08;87.62
41688;BME280;27371;42.686;23.362;2023-03-18T00:53:02;162239.44;;;0.15;87.51
41688;BME280;27371;42.686;23.362;2023-03-18T00:55:28;162255.34;;;0.21;87.22
41688;BME280;27371;42.686;23.362;2023-03-18T00:57:53;162267.31;;;0.26;86.97
41688;BME280;27371;42.686;23.362;2023-03-18T01:22:05;162354.91;;;0.59;84.98
41688;BME280;27371;42.686;23.362;2023-03-18T01:24:31;162340.31;;;0.54;83.79
41688;BME280;27371;42.686;23.362;2023-03-18T01:26:58;162236.78;;;0.14;81.47
41688;BME280;27371;42.686;23.362;2023-03-18T01:29:42;162149.16;;;-0.20;82.10
41688;BME280;27371;42.686;23.362;2023-03-18T01:32:07;162127.94;;;-0.28;82.87
41688;BME280;27371;42.686;23.362;2023-03-18T01:34:34;162110.72;;;-0.35;84.44
41688;BME280;27371;42.686;23.362;2023-03-18T01:36:59;162143.91;;;-0.22;85.51
41688;BME280;27371;42.686;23.362;2023-03-18T01:39:25;162158.50;;;-0.16;85.52
41688;BME280;27371;42.686;23.362;2023-03-18T01:41:51;162146.53;;;-0.21;86.09
41688;BME280;27371;42.686;23.362;2023-03-18T01:44:19;162143.91;;;-0.22;86.27
41688;BME280;27371;42.686;23.362;2023-03-18T01:46:49;162145.22;;;-0.21;86.54
41688;BME280;27371;42.686;23.362;2023-03-18T01:49:19;162155.81;;;-0.17;86.71
41688;BME280;27371;42.686;23.362;2023-03-18T01:52:00;162127.94;;;-0.28;86.31
41688;BME280;27371;42.686;23.362;2023-03-18T01:54:28;162112.03;;;-0.34;86.57
41688;BME280;27371;42.686;23.362;2023-03-18T01:56:59;162096.13;;;-0.40;86.84
41688;BME280;27371;42.686;23.362;2023-03-18T01:59:27;162090.78;;;-0.42;86.76
41688;BME280;27371;42.686;23.362;2023-03-18T02:02:02;162081.53;;;-0.46;86.90
41688;BME280;27371;42.686;23.362;2023-03-18T02:04:30;162092.13;;;-0.42;87.19
41688;BME280;27371;42.686;23.362;2023-03-18T02:06:58;162096.13;;;-0.40;87.71
41688;BME280;27371;42.686;23.362;2023-03-18T02:09:24;162129.25;;;-0.28;87.83
41688;BME280;27371;42.686;23.362;2023-03-18T02:11:49;162150.50;;;-0.19;87.34
41688;BME280;27371;42.686;23.362;2023-03-18T02:14:18;162167.75;;;-0.13;86.79
41688;BME280;27371;42.686;23.362;2023-03-18T02:16:53;162174.41;;;-0.10;86.72
41688;BME280;27371;42.686;23.362;2023-03-18T02:22:36;162200.97;;;0.00;86.16
41688;BME280;27371;42.686;23.362;2023-03-18T02:25:18;162195.63;;;-0.02;85.18
41688;BME280;27371;42.686;23.362;2023-03-18T02:27:56;162175.72;;;-0.10;85.14
41688;BME280;27371;42.686;23.362;2023-03-18T02:30:31;162159.81;;;-0.16;85.08
41688;BME280;27371;42.686;23.362;2023-03-18T02:32:58;162163.75;;;-0.14;84.81
41688;BME280;27371;42.686;23.362;2023-03-18T02:35:25;162127.94;;;-0.28;84.80
41688;BME280;27371;42.686;23.362;2023-03-18T02:37:51;162125.31;;;-0.29;84.60
41688;BME280;27371;42.686;23.362;2023-03-18T02:40:25;162074.88;;;-0.49;83.74
41688;BME280;27371;42.686;23.362;2023-03-18T02:42:51;161966.13;;;-0.91;82.08
41688;BME280;27371;42.686;23.362;2023-03-18T02:45:41;161862.69;;;-1.30;82.66
41688;BME280;27371;42.686;23.362;2023-03-18T02:48:15;161834.84;;;-1.41;83.42
41688;BME280;27371;42.686;23.362;2023-03-18T02:50:42;161807.00;;;-1.52;84.98
41688;BME280;27371;42.686;23.362;2023-03-18T02:53:10;161829.56;;;-1.43;86.19
41688;BME280;27371;42.686;23.362;2023-03-18T02:55:36;161836.16;;;-1.41;86.74
41688;BME280;27371;42.686;23.362;2023-03-18T02:58:02;161833.53;;;-1.42;87.82
41688;BME280;27371;42.686;23.362;2023-03-18T03:00:27;161832.19;;;-1.42;87.74
41688;BME280;27371;42.686;23.362;2023-03-18T03:02:53;161841.47;;;-1.39;87.58
41688;BME280;27371;42.686;23.362;2023-03-18T03:05:19;161811.00;;;-1.50;87.53
41688;BME280;27371;42.686;23.362;2023-03-18T03:07:44;161824.25;;;-1.45;87.71
41688;BME280;27371;42.686;23.362;2023-03-18T03:10:11;161813.63;;;-1.49;87.79
41688;BME280;27371;42.686;23.362;2023-03-18T03:12:37;161829.56;;;-1.43;87.94
41688;BME280;27371;42.686;23.362;2023-03-18T03:15:05;161800.34;;;-1.54;87.44
41688;BME280;27371;42.686;23.362;2023-03-18T03:17:31;161767.25;;;-1.67;87.34
41688;BME280;27371;42.686;23.362;2023-03-18T03:19:58;161731.47;;;-1.81;87.44
41688;BME280;27371;42.686;23.362;2023-03-18T03:22:24;161724.84;;;-1.84;87.87
41688;BME280;27371;42.686;23.362;2023-03-18T03:24:49;161739.41;;;-1.78;88.29
41688;BME280;27371;42.686;23.362;2023-03-18T03:27:15;161755.31;;;-1.72;88.48
41688;BME280;27371;42.686;23.362;2023-03-18T03:29:41;161808.34;;;-1.51;88.76
41688;BME280;27371;42.686;23.362;2023-03-18T03:32:06;161820.25;;;-1.47;88.79
41688;BME280;27371;42.686;23.362;2023-03-18T03:34:32;161850.78;;;-1.35;89.26
41688;BME280;27371;42.686;23.362;2023-03-18T03:36:59;161873.31;;;-1.26;89.12
41688;BME280;27371;42.686;23.362;2023-03-18T03:39:24;161902.47;;;-1.15;89.02
41688;BME280;27371;42.686;23.362;2023-03-18T03:41:50;161894.53;;;-1.18;88.71
41688;BME280;27371;42.686;23.362;2023-03-18T03:44:15;161921.00;;;-1.08;88.78
41688;BME280;27371;42.686;23.362;2023-03-18T03:46:41;161959.50;;;-0.93;88.39
41688;BME280;27371;42.686;23.362;2023-03-18T03:49:06;161974.09;;;-0.87;88.19
41688;BME280;27371;42.686;23.362;2023-03-18T03:51:32;161983.34;;;-0.84;87.99
41688;BME280;27371;42.686;23.362;2023-03-18T03:53:57;162008.59;;;-0.74;87.61
41688;BME280;27371;42.686;23.362;2023-03-18T03:56:23;162019.16;;;-0.70;87.41
41688;BME280;27371;42.686;23.362;2023-03-18T03:58:48;162037.75;;;-0.63;87.07
41688;BME280;27371;42.686;23.362;2023-03-18T04:01:14;162048.34;;;-0.59;86.99
41688;BME280;27371;42.686;23.362;2023-03-18T04:03:39;162062.94;;;-0.53;86.47
41688;BME280;27371;42.686;23.362;2023-03-18T04:06:05;162053.66;;;-0.57;85.58
41688;BME280;27371;42.686;23.362;2023-03-18T04:08:31;161938.28;;;-1.01;83.01
41688;BME280;27371;42.686;23.362;2023-03-18T04:10:57;161866.69;;;-1.29;82.75
41688;BME280;27371;42.686;23.362;2023-03-18T04:13:22;161826.88;;;-1.44;84.01
41688;BME280;27371;42.686;23.362;2023-03-18T04:15:48;161829.56;;;-1.43;84.97
41688;BME280;27371;42.686;23.362;2023-03-18T04:18:14;161821.56;;;-1.46;85.51
41688;BME280;27371;42.686;23.362;2023-03-18T04:20:41;161854.72;;;-1.33;86.66
41688;BME280;27371;42.686;23.362;2023-03-18T04:23:07;161816.31;;;-1.48;86.18
41688;BME280;27371;42.686;23.362;2023-03-18T04:25:32;161805.66;;;-1.52;86.18
41688;BME280;27371;42.686;23.362;2023-03-18T04:27:59;161784.47;;;-1.61;86.76
41688;BME280;27371;42.686;23.362;2023-03-18T04:30:25;161765.94;;;-1.68;86.92
41688;BME280;27371;42.686;23.362;2023-03-18T04:32:51;161779.16;;;-1.63;87.36
41688;BME280;27371;42.686;23.362;2023-03-18T04:35:17;161820.25;;;-1.47;87.66
41688;BME280;27371;42.686;23.362;2023-03-18T04:37:43;161825.56;;;-1.45;87.71
41688;BME280;27371;42.686;23.362;2023-03-18T04:40:10;161840.16;;;-1.39;87.70
41688;BME280;27371;42.686;23.362;2023-03-18T04:42:36;161852.09;;;-1.35;87.55
41688;BME280;27371;42.686;23.362;2023-03-18T04:45:03;161870.63;;;-1.27;87.82
41688;BME280;27371;42.686;23.362;2023-03-18T04:47:29;161895.84;;;-1.18;87.53
41688;BME280;27371;42.686;23.362;2023-03-18T04:49:57;161902.47;;;-1.15;87.20
41688;BME280;27371;42.686;23.362;2023-03-18T04:52:22;161943.59;;;-0.99;87.25
41688;BME280;27371;42.686;23.362;2023-03-18T04:54:48;161958.19;;;-0.94;86.69
41688;BME280;27371;42.686;23.362;2023-03-18T04:57:14;161966.13;;;-0.91;86.51
41688;BME280;27371;42.686;23.362;2023-03-18T04:59:41;161975.41;;;-0.87;86.54
41688;BME280;27371;42.686;23.362;2023-03-18T05:02:06;161994.00;;;-0.80;86.08
41688;BME280;27371;42.686;23.362;2023-03-18T05:04:33;162000.56;;;-0.77;85.64
41688;BME280;27371;42.686;23.362;2023-03-18T05:06:59;162011.22;;;-0.73;85.58
41688;BME280;27371;42.686;23.362;2023-03-18T05:09:25;162012.53;;;-0.73;85.41
41688;BME280;27371;42.686;23.362;2023-03-18T05:11:51;161994.00;;;-0.80;85.39
41688;BME280;27371;42.686;23.362;2023-03-18T05:14:17;162027.13;;;-0.67;85.39
41688;BME280;27371;42.686;23.362;2023-03-18T05:16:42;162016.53;;;-0.71;85.42
41688;BME280;27371;42.686;23.362;2023-03-18T05:19:08;162121.31;;;-0.31;84.94
41688;BME280;27371;42.686;23.362;2023-03-18T05:21:34;162206.22;;;0.02;84.88
41688;BME280;27371;42.686;23.362;2023-03-18T05:24:00;162242.06;;;0.16;83.04
41688;BME280;27371;42.686;23.362;2023-03-18T05:26:26;162338.97;;;0.53;81.67
41688;BME280;27371;42.686;23.362;2023-03-18T05:28:52;162401.41;;;0.77;79.39
41688;BME280;27371;42.686;23.362;2023-03-18T05:31:18;162458.44;;;0.99;79.05
41688;BME280;27371;42.686;23.362;2023-03-18T05:33:44;162616.56;;;1.60;77.65
41688;BME280;27371;42.686;23.362;2023-03-18T05:36:09;162717.53;;;1.99;75.78
41688;BME280;27371;42.686;23.362;2023-03-18T05:38:35;162817.22;;;2.37;74.59
41688;BME280;27371;42.686;23.362;2023-03-18T05:41:00;162895.66;;;2.67;73.18
41688;BME280;27371;42.686;23.362;2023-03-18T05:43:26;162976.75;;;2.99;72.10
41688;BME280;27371;42.686;23.362;2023-03-18T05:45:53;163045.94;;;3.25;71.10
41688;BME280;27371;42.686;23.362;2023-03-18T05:48:19;163117.75;;;3.53;70.05
41688;BME280;27371;42.686;23.362;2023-03-18T05:50:44;163124.38;;;3.55;69.76
41688;BME280;27371;42.686;23.362;2023-03-18T05:53:11;163153.69;;;3.67;69.72
41688;BME280;27371;42.686;23.362;2023-03-18T05:55:36;163087.13;;;3.41;69.22
41688;BME280;27371;42.686;23.362;2023-03-18T05:58:02;163018.00;;;3.15;69.39
41688;BME280;27371;42.686;23.362;2023-03-18T06:00:28;162982.09;;;3.01;69.73
41688;BME280;27371;42.686;23.362;2023-03-18T06:02:55;162970.09;;;2.96;70.17
41688;BME280;27371;42.686;23.362;2023-03-18T06:05:22;162970.09;;;2.96;70.36
41688;BME280;27371;42.686;23.362;2023-03-18T06:07:49;163018.00;;;3.15;69.63
41688;BME280;27371;42.686;23.362;2023-03-18T06:10:15;163075.19;;;3.37;69.80
41688;BME280;27371;42.686;23.362;2023-03-18T06:12:41;163077.84;;;3.38;68.29
41688;BME280;27371;42.686;23.362;2023-03-18T06:15:10;163023.28;;;3.17;66.75
41688;BME280;27371;42.686;23.362;2023-03-18T06:17:37;162948.81;;;2.88;67.81
41688;BME280;27371;42.686;23.362;2023-03-18T06:20:03;162923.53;;;2.78;69.19
41688;BME280;27371;42.686;23.362;2023-03-18T06:22:29;162919.56;;;2.77;70.25
41688;BME280;27371;42.686;23.362;2023-03-18T06:24:57;162891.66;;;2.66;70.53
41688;BME280;27371;42.686;23.362;2023-03-18T06:27:23;162986.06;;;3.02;70.28
41688;BME280;27371;42.686;23.362;2023-03-18T06:29:48;162974.06;;;2.98;69.46
41688;BME280;27371;42.686;23.362;2023-03-18T06:32:14;163019.31;;;3.15;69.83
41688;BME280;27371;42.686;23.362;2023-03-18T06:37:24;162986.06;;;3.02;69.05
41688;BME280;27371;42.686;23.362;2023-03-18T06:39:50;162959.44;;;2.92;69.10
41688;BME280;27371;42.686;23.362;2023-03-18T06:42:16;163028.59;;;3.19;70.07
41688;BME280;27371;42.686;23.362;2023-03-18T06:44:42;163085.81;;;3.41;69.05
41688;BME280;27371;42.686;23.362;2023-03-18T06:47:15;163055.22;;;3.29;68.71
41688;BME280;27371;42.686;23.362;2023-03-18T06:49:41;163081.84;;;3.39;68.68
41688;BME280;27371;42.686;23.362;2023-03-18T06:52:06;163180.25;;;3.77;68.21
41688;BME280;27371;42.686;23.362;2023-03-18T06:54:32;163197.59;;;3.84;67.47
41688;BME280;27371;42.686;23.362;2023-03-18T06:56:58;163249.47;;;4.04;66.75
41688;BME280;27371;42.686;23.362;2023-03-18T06:59:24;163270.75;;;4.12;66.46
41688;BME280;27371;42.686;23.362;2023-03-18T07:01:49;163314.69;;;4.29;65.91
41688;BME280;27371;42.686;23.362;2023-03-18T07:04:16;163362.59;;;4.47;65.86
41688;BME280;27371;42.686;23.362;2023-03-18T07:06:41;163455.81;;;4.83;65.58
41688;BME280;27371;42.686;23.362;2023-03-18T07:09:07;163547.66;;;5.18;64.02
41688;BME280;27371;42.686;23.362;2023-03-18T07:11:35;163572.97;;;5.28;62.14
41688;BME280;27371;42.686;23.362;2023-03-18T07:14:00;163515.72;;;5.06;62.72
41688;BME280;27371;42.686;23.362;2023-03-18T07:16:29;163558.31;;;5.22;62.30
41688;BME280;27371;42.686;23.362;2023-03-18T07:18:54;163567.63;;;5.26;62.20
41688;BME280;27371;42.686;23.362;2023-03-18T07:21:22;163602.28;;;5.39;62.27
41688;BME280;27371;42.686;23.362;2023-03-18T07:23:47;163640.88;;;5.54;62.14
41688;BME280;27371;42.686;23.362;2023-03-18T07:26:13;163692.88;;;5.74;61.53
41688;BME280;27371;42.686;23.362;2023-03-18T07:28:39;163742.19;;;5.93;60.81
41688;BME280;27371;42.686;23.362;2023-03-18T07:31:05;163703.50;;;5.78;60.49
41688;BME280;27371;42.686;23.362;2023-03-18T07:33:30;163655.53;;;5.59;61.25
41688;BME280;27371;42.686;23.362;2023-03-18T07:35:57;163626.22;;;5.48;61.13
41688;BME280;27371;42.686;23.362;2023-03-18T07:38:23;163521.03;;;5.08;63.02
41688;BME280;27371;42.686;23.362;2023-03-18T07:40:48;163521.03;;;5.08;63.44
41688;BME280;27371;42.686;23.362;2023-03-18T07:43:14;163526.34;;;5.10;63.63
41688;BME280;27371;42.686;23.362;2023-03-18T07:45:39;163517.03;;;5.06;64.20
41688;BME280;27371;42.686;23.362;2023-03-18T07:48:05;163567.63;;;5.26;63.58
41688;BME280;27371;42.686;23.362;2023-03-18T07:50:31;163646.22;;;5.56;63.13
41688;BME280;27371;42.686;23.362;2023-03-18T07:52:58;163619.56;;;5.46;63.28
41688;BME280;27371;42.686;23.362;2023-03-18T07:55:24;163806.16;;;6.17;65.71
41688;BME280;27371;42.686;23.362;2023-03-18T07:57:49;163794.19;;;6.13;61.34
41688;BME280;27371;42.686;23.362;2023-03-18T08:00:15;163780.84;;;6.08;61.52
41688;BME280;27371;42.686;23.362;2023-03-18T08:02:41;163796.84;;;6.14;61.32
41688;BME280;27371;42.686;23.362;2023-03-18T08:05:07;163728.84;;;5.88;61.44
41688;BME280;27371;42.686;23.362;2023-03-18T08:07:33;163756.88;;;5.98;61.55
41688;BME280;27371;42.686;23.362;2023-03-18T08:09:59;163787.53;;;6.10;61.27
41688;BME280;27371;42.686;23.362;2023-03-18T08:12:26;163802.19;;;6.16;61.36
41688;BME280;27371;42.686;23.362;2023-03-18T08:14:52;163887.47;;;6.49;60.80
41688;BME280;27371;42.686;23.362;2023-03-18T08:17:17;163936.81;;;6.67;59.82
41688;BME280;27371;42.686;23.362;2023-03-18T08:19:43;164002.13;;;6.93;59.18
41688;BME280;27371;42.686;23.362;2023-03-18T08:22:09;164040.78;;;7.07;58.51
41688;BME280;27371;42.686;23.362;2023-03-18T08:24:35;163966.13;;;6.79;57.94
41688;BME280;27371;42.686;23.362;2023-03-18T08:27:01;163952.78;;;6.74;58.62
41688;BME280;27371;42.686;23.362;2023-03-18T08:29:27;163980.81;;;6.84;58.63
41688;BME280;27371;42.686;23.362;2023-03-18T08:31:53;164030.13;;;7.03;58.83
41688;BME280;27371;42.686;23.362;2023-03-18T08:34:18;164036.81;;;7.06;58.52
41688;BME280;27371;42.686;23.362;2023-03-18T08:36:44;164072.81;;;7.20;57.68
41688;BME280;27371;42.686;23.362;2023-03-18T08:39:10;164094.16;;;7.28;56.86
41688;BME280;27371;42.686;23.362;2023-03-18T08:41:36;164160.81;;;7.53;56.31
41688;BME280;27371;42.686;23.362;2023-03-18T08:44:02;164059.47;;;7.14;56.58
41688;BME280;27371;42.686;23.362;2023-03-18T08:46:28;163962.09;;;6.77;58.20
41688;BME280;27371;42.686;23.362;2023-03-18T08:48:53;163976.78;;;6.83;57.98
41688;BME280;27371;42.686;23.362;2023-03-18T08:51:20;164056.78;;;7.13;56.81
41688;BME280;27371;42.686;23.362;2023-03-18T08:53:46;164144.81;;;7.47;55.97
41688;BME280;27371;42.686;23.362;2023-03-18T08:56:12;164196.84;;;7.67;56.20
41688;BME280;27371;42.686;23.362;2023-03-18T08:58:39;164218.19;;;7.75;55.07
41688;BME280;27371;42.686;23.362;2023-03-18T09:01:04;164263.53;;;7.93;54.73
41688;BME280;27371;42.686;23.362;2023-03-18T09:03:30;164312.91;;;8.12;53.87
41688;BME280;27371;42.686;23.362;2023-03-18T09:05:56;164340.91;;;8.22;52.59
41688;BME280;27371;42.686;23.362;2023-03-18T09:08:22;164342.25;;;8.23;51.89
41688;BME280;27371;42.686;23.362;2023-03-18T09:10:50;164402.34;;;8.46;51.71
41688;BME280;27371;42.686;23.362;2023-03-18T09:13:18;164387.66;;;8.40;49.94
41688;BME280;27371;42.686;23.362;2023-03-18T09:15:43;164323.53;;;8.16;50.45
41688;BME280;27371;42.686;23.362;2023-03-18T09:18:09;164348.91;;;8.25;50.09
41688;BME280;27371;42.686;23.362;2023-03-18T09:20:34;164338.22;;;8.21;49.14
41688;BME280;27371;42.686;23.362;2023-03-18T09:23:00;164360.94;;;8.30;48.40
41688;BME280;27371;42.686;23.362;2023-03-18T09:25:29;164375.63;;;8.36;47.16
41688;BME280;27371;42.686;23.362;2023-03-18T09:27:54;164387.66;;;8.40;45.88
41688;BME280;27371;42.686;23.362;2023-03-18T09:30:20;164394.31;;;8.43;47.44
41688;BME280;27371;42.686;23.362;2023-03-18T09:32:45;164315.53;;;8.13;48.38
41688;BME280;27371;42.686;23.362;2023-03-18T09:35:11;164350.25;;;8.26;48.23
41688;BME280;27371;42.686;23.362;2023-03-18T09:37:37;164371.59;;;8.34;47.76
41688;BME280;27371;42.686;23.362;2023-03-18T09:40:04;164368.94;;;8.33;48.53
41688;BME280;27371;42.686;23.362;2023-03-18T09:45:27;164310.25;;;8.11;48.89
41688;BME280;27371;42.686;23.362;2023-03-18T09:48:11;164344.91;;;8.24;48.66
41688;BME280;27371;42.686;23.362;2023-03-18T09:54:00;164256.84;;;7.90;47.39
41688;BME280;27371;42.686;23.362;2023-03-18T09:56:30;164126.13;;;7.40;48.30
41688;BME280;27371;42.686;23.362;2023-03-18T09:59:05;164115.50;;;7.36;49.68
41688;BME280;27371;42.686;23.362;2023-03-18T10:01:37;164110.13;;;7.34;49.95
41688;BME280;27371;42.686;23.362;2023-03-18T10:04:09;164079.44;;;7.22;50.60
41688;BME280;27371;42.686;23.362;2023-03-18T10:06:39;164104.78;;;7.32;49.78
41688;BME280;27371;42.686;23.362;2023-03-18T10:11:44;163998.09;;;6.91;49.51
41688;BME280;27371;42.686;23.362;2023-03-18T10:19:16;164052.78;;;7.12;49.79
41688;BME280;27371;42.686;23.362;2023-03-18T10:22:11;163984.78;;;6.86;51.22
41688;BME280;27371;42.686;23.362;2023-03-18T10:25:30;164084.78;;;7.24;51.53
41688;BME280;27371;42.686;23.362;2023-03-18T10:27:43;164068.78;;;7.18;49.47
41688;BME280;27371;42.686;23.362;2023-03-18T10:33:15;164198.16;;;7.68;48.23
41688;BME280;27371;42.686;23.362;2023-03-18T10:35:54;164234.16;;;7.81;45.91
41688;BME280;27371;42.686;23.362;2023-03-18T10:38:27;164170.13;;;7.57;45.77
41688;BME280;27371;42.686;23.362;2023-03-18T10:40:54;164176.81;;;7.59;46.31
41688;BME280;27371;42.686;23.362;2023-03-18T10:43:22;164216.84;;;7.75;45.56
41688;BME280;27371;42.686;23.362;2023-03-18T10:45:57;164280.91;;;7.99;45.72
41688;BME280;27371;42.686;23.362;2023-03-18T10:51:45;164250.16;;;7.88;44.09
41688;BME280;27371;42.686;23.362;2023-03-18T10:54:14;164263.53;;;7.93;41.92
41688;BME280;27371;42.686;23.362;2023-03-18T10:56:44;164284.88;;;8.01;41.72
41688;BME280;27371;42.686;23.362;2023-03-18T10:59:11;164352.94;;;8.27;40.69
41688;BME280;27371;42.686;23.362;2023-03-18T11:01:38;164363.59;;;8.31;39.85
41688;BME280;27371;42.686;23.362;2023-03-18T11:04:05;164380.94;;;8.38;40.05
41688;BME280;27371;42.686;23.362;2023-03-18T11:06:51;164406.34;;;8.47;39.98
41688;BME280;27371;42.686;23.362;2023-03-18T11:09:21;164368.94;;;8.33;42.33
41688;BME280;27371;42.686;23.362;2023-03-18T11:11:49;164279.53;;;7.99;42.51
41688;BME280;27371;42.686;23.362;2023-03-18T11:14:21;164200.81;;;7.69;43.39
41688;BME280;27371;42.686;23.362;2023-03-18T11:24:35;164075.47;;;7.21;42.13
41688;BME280;27371;42.686;23.362;2023-03-18T11:29:41;164166.16;;;7.55;42.36
41688;BME280;27371;42.686;23.362;2023-03-18T11:34:57;164230.16;;;7.80;40.89
41688;BME280;27371;42.686;23.362;2023-03-18T11:37:40;164239.53;;;7.84;40.62
41688;BME280;27371;42.686;23.362;2023-03-18T11:42:41;164106.13;;;7.32;42.16
41688;BME280;27371;42.686;23.362;2023-03-18T11:47:49;164116.81;;;7.36;43.07
41688;BME280;27371;42.686;23.362;2023-03-18T11:50:20;164144.81;;;7.47;43.38
41688;BME280;27371;42.686;23.362;2023-03-18T11:55:43;164258.16;;;7.91;41.90
41688;BME280;27371;42.686;23.362;2023-03-18T12:00:54;164228.81;;;7.79;41.00
41688;BME280;27371;42.686;23.362;2023-03-18T12:03:50;164234.16;;;7.81;41.45
41688;BME280;27371;42.686;23.362;2023-03-18T12:06:32;164236.81;;;7.82;41.39
41688;BME280;27371;42.686;23.362;2023-03-18T12:20:50;164347.59;;;8.25;40.23
41688;BME280;27371;42.686;23.362;2023-03-18T12:34:02;164294.19;;;8.04;40.08
41688;BME280;27371;42.686;23.362;2023-03-18T12:37:02;164310.25;;;8.11;40.25
41688;BME280;27371;42.686;23.362;2023-03-18T12:45:11;164319.56;;;8.14;40.26
41688;BME280;27371;42.686;23.362;2023-03-18T12:50:25;164216.84;;;7.75;39.86
41688;BME280;27371;42.686;23.362;2023-03-18T12:52:59;164188.84;;;7.64;41.38
41688;BME280;27371;42.686;23.362;2023-03-18T12:55:30;164200.81;;;7.69;40.05
41688;BME280;27371;42.686;23.362;2023-03-18T12:58:17;164227.50;;;7.79;39.70
41688;BME280;27371;42.686;23.362;2023-03-18T13:03:35;164344.91;;;8.24;39.38
41688;BME280;27371;42.686;23.362;2023-03-18T13:06:08;164371.59;;;8.34;38.12
41688;BME280;27371;42.686;23.362;2023-03-18T13:11:27;164395.66;;;8.43;37.94
41688;BME280;27371;42.686;23.362;2023-03-18T13:14:01;164372.91;;;8.35;37.55
41688;BME280;27371;42.686;23.362;2023-03-18T13:16:29;164354.28;;;8.28;37.94
41688;BME280;27371;42.686;23.362;2023-03-18T13:18:56;164393.00;;;8.42;37.67
41688;BME280;27371;42.686;23.362;2023-03-18T13:21:29;164422.38;;;8.54;37.71
41688;BME280;27371;42.686;23.362;2023-03-18T13:26:55;164371.59;;;8.34;37.35
41688;BME280;27371;42.686;23.362;2023-03-18T13:35:13;164394.31;;;8.43;36.80
41688;BME280;27371;42.686;23.362;2023-03-18T13:38:06;164430.38;;;8.57;36.94
41688;BME280;27371;42.686;23.362;2023-03-18T13:43:21;164523.81;;;8.92;36.98
41688;BME280;27371;42.686;23.362;2023-03-18T13:45:51;164578.56;;;9.13;36.38
41688;BME280;27371;42.686;23.362;2023-03-18T13:48:20;164595.91;;;9.20;36.24
41688;BME280;27371;42.686;23.362;2023-03-18T13:50:49;164661.31;;;9.45;34.95
41688;BME280;27371;42.686;23.362;2023-03-18T13:53:39;164657.34;;;9.44;34.54
41688;BME280;27371;42.686;23.362;2023-03-18T13:56:26;164559.84;;;9.06;35.13
41688;BME280;27371;42.686;23.362;2023-03-18T13:58:52;164521.16;;;8.91;35.97
41688;BME280;27371;42.686;23.362;2023-03-18T14:01:28;164410.38;;;8.49;35.52
41688;BME280;27371;42.686;23.362;2023-03-18T14:04:01;164322.22;;;8.15;36.46
41688;BME280;27371;42.686;23.362;2023-03-18T14:06:53;164324.91;;;8.16;36.80
41688;BME280;27371;42.686;23.362;2023-03-18T14:09:32;164323.53;;;8.16;36.70
41688;BME280;27371;42.686;23.362;2023-03-18T14:17:54;164397.03;;;8.44;35.84
41688;BME280;27371;42.686;23.362;2023-03-18T14:20:42;164415.69;;;8.51;35.44
41688;BME280;27371;42.686;23.362;2023-03-18T14:23:37;164425.06;;;8.55;35.64
41688;BME280;27371;42.686;23.362;2023-03-18T14:26:04;164483.78;;;8.77;35.13
41688;BME280;27371;42.686;23.362;2023-03-18T14:28:39;164514.47;;;8.89;34.96
41688;BME280;27371;42.686;23.362;2023-03-18T14:31:14;164559.84;;;9.06;34.89
41688;BME280;27371;42.686;23.362;2023-03-18T14:36:27;164585.25;;;9.16;34.19
41688;BME280;27371;42.686;23.362;2023-03-18T14:39:05;164547.88;;;9.02;34.04
41688;BME280;27371;42.686;23.362;2023-03-18T14:41:34;164510.44;;;8.87;34.33
41688;BME280;27371;42.686;23.362;2023-03-18T14:44:20;164526.50;;;8.94;34.38
41688;BME280;27371;42.686;23.362;2023-03-18T14:46:48;164530.47;;;8.95;34.54
41688;BME280;27371;42.686;23.362;2023-03-18T14:54:48;164529.16;;;8.95;34.08
41688;BME280;27371;42.686;23.362;2023-03-18T14:57:19;164509.13;;;8.87;33.95
41688;BME280;27371;42.686;23.362;2023-03-18T14:59:45;164467.72;;;8.71;33.97
41688;BME280;27371;42.686;23.362;2023-03-18T15:02:20;164417.00;;;8.52;34.12
41688;BME280;27371;42.686;23.362;2023-03-18T15:04:54;164236.81;;;7.82;34.77
41688;BME280;27371;42.686;23.362;2023-03-18T15:07:28;164151.50;;;7.50;35.90
41688;BME280;27371;42.686;23.362;2023-03-18T15:09:56;164126.13;;;7.40;36.78